createdAt,value
2022-09-28T00:01:58.915Z,96.04
2022-09-28T00:04:25.590Z,95.85
2022-09-28T00:06:52.167Z,95.22
2022-09-28T00:09:18.782Z,96.09
2022-09-28T00:11:46.102Z,96.69
2022-09-28T00:14:13.429Z,96.13
2022-09-28T00:16:43.495Z,97.15
2022-09-28T00:19:11.849Z,96.47
2022-09-28T00:21:40.580Z,97.39
2022-09-28T00:24:22.942Z,97.54
2022-09-28T00:26:56.991Z,98.87
2022-09-28T00:29:32.762Z,98.74
2022-09-28T00:32:09.657Z,98.34
2022-09-28T00:34:43.164Z,97.83
2022-09-28T00:37:10.162Z,97.46
2022-09-28T00:39:38.416Z,98.18
2022-09-28T00:42:12.444Z,99.05
2022-09-28T00:44:46.587Z,97.95
2022-09-28T00:47:41.680Z,98.64
2022-09-28T00:50:11.243Z,98.61
2022-09-28T00:52:48.559Z,98.62
2022-09-28T00:55:18.976Z,99.33
2022-09-28T00:57:51.935Z,99.23
2022-09-28T01:00:19.147Z,99.33
2022-09-28T01:02:46.905Z,98.94
2022-09-28T01:05:18.386Z,96.65
2022-09-28T01:07:46.582Z,97.42
2022-09-28T01:10:14.223Z,98.77
2022-09-28T01:12:40.714Z,98.83
2022-09-28T01:15:07.610Z,99.61
2022-09-28T01:17:44.843Z,97.78
2022-09-28T01:20:33.903Z,98.09
2022-09-28T01:23:15.536Z,99.07
2022-09-28T01:25:48.074Z,99.18
2022-09-28T01:28:17.297Z,99.32
2022-09-28T01:31:05.560Z,100.00
2022-09-28T01:33:56.973Z,99.37
2022-09-28T01:36:55.283Z,98.77
2022-09-28T01:39:29.507Z,97.89
2022-09-28T01:42:00.709Z,97.89
2022-09-28T01:44:31.035Z,98.76
2022-09-28T01:47:04.274Z,99.96
2022-09-28T01:49:46.013Z,99.87
2022-09-28T01:52:25.159Z,99.22
2022-09-28T01:55:01.497Z,99.07
2022-09-28T01:58:10.940Z,97.75
2022-09-28T02:00:42.548Z,97.78
2022-09-28T02:03:16.346Z,97.76
2022-09-28T02:05:59.545Z,96.28
2022-09-28T02:08:34.820Z,96.48
2022-09-28T02:11:11.546Z,95.89
2022-09-28T02:13:43.090Z,95.38
2022-09-28T02:16:21.746Z,95.08
2022-09-28T02:18:48.283Z,95.59
2022-09-28T02:21:29.708Z,94.83
2022-09-28T02:24:01.069Z,94.02
2022-09-28T02:26:34.901Z,93.27
2022-09-28T02:29:01.516Z,92.59
2022-09-28T02:31:28.371Z,92.10
2022-09-28T02:33:57.682Z,90.28
2022-09-28T02:36:26.362Z,91.14
2022-09-28T02:38:53.672Z,92.38
2022-09-28T02:41:32.868Z,90.82
2022-09-28T02:44:05.997Z,89.71
2022-09-28T02:46:52.904Z,90.57
2022-09-28T02:49:47.014Z,88.71
2022-09-28T02:52:16.377Z,88.46
2022-09-28T02:55:04.586Z,89.86
2022-09-28T02:57:46.306Z,91.26
2022-09-28T03:00:19.935Z,92.40
2022-09-28T03:02:46.382Z,92.65
2022-09-28T03:05:21.060Z,91.20
2022-09-28T03:07:57.035Z,91.00
2022-09-28T03:10:29.803Z,91.15
2022-09-28T03:12:57.616Z,88.30
2022-09-28T03:15:27.532Z,87.86
2022-09-28T03:17:54.607Z,86.18
2022-09-28T03:20:21.170Z,84.65
2022-09-28T03:23:06.048Z,85.71
2022-09-28T03:25:34.263Z,85.51
2022-09-28T03:28:00.966Z,84.59
2022-09-28T03:30:27.790Z,84.80
2022-09-28T03:33:03.563Z,84.54
2022-09-28T03:35:30.025Z,85.97
2022-09-28T03:37:57.187Z,85.31
2022-09-28T03:40:24.117Z,84.30
2022-09-28T03:42:50.659Z,84.91
2022-09-28T03:45:17.191Z,86.53
2022-09-28T03:47:47.071Z,87.85
2022-09-28T03:50:13.693Z,88.27
2022-09-28T03:52:40.316Z,89.43
2022-09-28T03:55:07.305Z,89.60
2022-09-28T03:57:33.768Z,90.12
2022-09-28T04:00:00.450Z,91.20
2022-09-28T04:02:27.041Z,90.32
2022-09-28T04:04:53.554Z,89.88
2022-09-28T04:07:20.051Z,90.43
2022-09-28T04:09:46.549Z,91.00
2022-09-28T04:12:13.010Z,92.14
2022-09-28T04:14:39.493Z,91.61
2022-09-28T04:17:07.259Z,90.86
2022-09-28T04:19:33.798Z,91.84
2022-09-28T04:22:01.943Z,91.47
2022-09-28T04:24:28.449Z,92.71
2022-09-28T04:27:14.903Z,93.80
2022-09-28T04:29:41.715Z,94.10
2022-09-28T04:32:08.264Z,93.59
2022-09-28T04:34:37.226Z,94.01
2022-09-28T04:37:05.288Z,91.14
2022-09-28T04:39:31.848Z,92.34
2022-09-28T04:41:58.310Z,91.76
2022-09-28T04:44:26.196Z,93.31
2022-09-28T04:46:55.191Z,93.52
2022-09-28T04:49:21.682Z,93.05
2022-09-28T04:51:48.150Z,94.31
2022-09-28T04:54:14.634Z,94.26
2022-09-28T04:56:41.785Z,94.49
2022-09-28T04:59:08.274Z,93.67
2022-09-28T05:01:34.809Z,94.71
2022-09-28T05:04:01.550Z,95.63
2022-09-28T05:06:30.649Z,95.85
2022-09-28T05:08:57.567Z,95.88
2022-09-28T05:11:24.206Z,96.17
2022-09-28T05:13:50.769Z,95.99
2022-09-28T05:16:17.589Z,95.65
2022-09-28T05:18:44.083Z,96.26
2022-09-28T05:21:12.771Z,96.42
2022-09-28T05:23:40.282Z,97.19
2022-09-28T05:26:07.390Z,97.79
2022-09-28T05:28:34.199Z,97.76
2022-09-28T05:31:02.339Z,98.04
2022-09-28T05:33:29.753Z,97.27
2022-09-28T05:36:00.925Z,97.04
2022-09-28T05:38:28.688Z,97.56
2022-09-28T05:40:55.845Z,97.26
2022-09-28T05:43:22.724Z,96.82
2022-09-28T05:45:54.276Z,96.51
2022-09-28T05:48:20.970Z,96.20
2022-09-28T05:50:52.359Z,96.81
2022-09-28T05:53:19.389Z,97.23
2022-09-28T05:55:45.992Z,97.19
2022-09-28T05:58:12.555Z,95.82
2022-09-28T06:00:39.423Z,96.50
2022-09-28T06:03:10.503Z,96.06
2022-09-28T06:05:39.351Z,96.11
2022-09-28T06:08:08.383Z,96.01
2022-09-28T06:10:35.310Z,94.65
2022-09-28T06:13:01.973Z,95.31
2022-09-28T06:15:31.070Z,96.23
2022-09-28T06:17:59.569Z,94.66
2022-09-28T06:20:27.639Z,91.84
2022-09-28T06:22:54.403Z,92.40
2022-09-28T06:25:22.657Z,93.07
2022-09-28T06:27:59.057Z,91.26
2022-09-28T06:30:27.269Z,88.10
2022-09-28T06:32:56.120Z,86.68
2022-09-28T06:35:25.480Z,86.07
2022-09-28T06:37:53.299Z,86.48
2022-09-28T06:40:21.464Z,84.92
2022-09-28T06:43:00.962Z,83.88
2022-09-28T06:45:29.654Z,84.31
2022-09-28T06:48:00.770Z,83.15
2022-09-28T06:50:40.540Z,83.64
2022-09-28T06:53:09.528Z,82.26
2022-09-28T06:55:39.066Z,81.31
2022-09-28T06:58:09.797Z,80.66
2022-09-28T07:00:38.125Z,81.10
2022-09-28T07:03:07.348Z,79.47
2022-09-28T07:05:36.894Z,79.20
2022-09-28T07:08:04.420Z,76.69
2022-09-28T07:10:32.460Z,77.94
2022-09-28T07:13:02.703Z,75.74
2022-09-28T07:15:29.806Z,75.87
2022-09-28T07:18:02.557Z,77.46
2022-09-28T07:20:30.695Z,75.29
2022-09-28T07:23:15.284Z,75.00
2022-09-28T07:25:49.608Z,73.32
2022-09-28T07:28:17.347Z,74.25
2022-09-28T07:30:47.429Z,73.98
2022-09-28T07:33:15.922Z,71.44
2022-09-28T07:35:50.757Z,72.40
2022-09-28T07:38:17.234Z,71.38
2022-09-28T07:41:02.342Z,72.47
2022-09-28T07:43:28.861Z,69.66
2022-09-28T07:45:55.788Z,70.80
2022-09-28T07:48:23.395Z,70.31
2022-09-28T07:50:57.370Z,71.98
2022-09-28T07:53:25.478Z,71.09
2022-09-28T07:55:57.221Z,70.20
2022-09-28T07:58:23.717Z,68.61
2022-09-28T08:00:51.125Z,67.63
2022-09-28T08:03:18.779Z,67.74
2022-09-28T08:05:46.954Z,67.18
2022-09-28T08:08:14.053Z,68.02
2022-09-28T08:10:46.791Z,66.46
2022-09-28T08:13:15.258Z,69.15
2022-09-28T08:15:42.613Z,68.24
2022-09-28T08:18:09.856Z,67.34
2022-09-28T08:20:56.748Z,66.15
2022-09-28T08:23:23.705Z,66.65
2022-09-28T08:25:54.119Z,66.72
2022-09-28T08:28:23.247Z,68.48
2022-09-28T08:30:50.262Z,67.46
2022-09-28T08:33:21.287Z,64.28
2022-09-28T08:35:48.323Z,66.56
2022-09-28T08:38:15.343Z,64.90
2022-09-28T08:40:58.862Z,63.49
2022-09-28T08:43:37.787Z,61.40
2022-09-28T08:46:04.433Z,63.90
2022-09-28T08:48:56.289Z,61.90
2022-09-28T08:51:33.842Z,61.19
2022-09-28T08:54:21.027Z,62.13
2022-09-28T08:56:52.455Z,63.28
2022-09-28T08:59:23.564Z,62.11
2022-09-28T09:02:03.617Z,64.09
2022-09-28T09:04:32.880Z,63.00
2022-09-28T09:07:19.730Z,62.31
2022-09-28T09:10:01.144Z,60.40
2022-09-28T09:12:36.937Z,58.96
2022-09-28T09:15:17.478Z,59.82
2022-09-28T09:18:08.967Z,59.97
2022-09-28T09:20:50.461Z,60.33
2022-09-28T09:23:28.400Z,58.88
2022-09-28T09:26:03.634Z,60.44
2022-09-28T09:29:01.224Z,57.60
2022-09-28T09:31:39.906Z,57.62
2022-09-28T09:34:09.369Z,58.92
2022-09-28T09:36:38.769Z,58.24
2022-09-28T09:39:17.485Z,55.61
2022-09-28T09:41:46.870Z,56.76
2022-09-28T09:44:19.384Z,56.17
2022-09-28T09:46:49.644Z,55.79
2022-09-28T09:49:24.796Z,55.75
2022-09-28T09:52:18.701Z,56.22
2022-09-28T09:54:58.575Z,53.77
2022-09-28T09:57:54.494Z,53.52
2022-09-28T10:00:21.918Z,53.34
2022-09-28T10:02:49.752Z,52.70
2022-09-28T10:05:29.217Z,52.99
2022-09-28T10:07:58.428Z,52.21
2022-09-28T10:10:29.581Z,52.51
2022-09-28T10:12:56.816Z,52.99
2022-09-28T10:15:28.434Z,54.45
2022-09-28T10:17:58.703Z,53.64
2022-09-28T10:20:25.666Z,54.23
2022-09-28T10:22:53.660Z,56.31
2022-09-28T10:25:20.427Z,55.72
2022-09-28T10:27:49.592Z,54.89
2022-09-28T10:30:20.266Z,52.42
2022-09-28T10:32:48.948Z,52.40
2022-09-28T10:35:18.604Z,50.63
2022-09-28T10:37:56.818Z,49.93
2022-09-28T10:40:46.446Z,50.54
2022-09-28T10:43:26.287Z,50.48
2022-09-28T10:46:13.575Z,52.55
2022-09-28T10:48:51.781Z,54.44
2022-09-28T10:51:18.319Z,51.17
2022-09-28T10:54:02.628Z,51.27
2022-09-28T10:56:35.858Z,50.86
2022-09-28T10:59:02.612Z,51.28
2022-09-28T11:01:34.421Z,50.99
2022-09-28T11:04:04.137Z,50.93
2022-09-28T11:06:36.787Z,51.74
2022-09-28T11:09:07.462Z,51.34
2022-09-28T11:11:42.095Z,52.23
2022-09-28T11:14:23.116Z,52.35
2022-09-28T11:17:26.401Z,54.50
2022-09-28T11:19:54.249Z,50.97
2022-09-28T11:22:51.734Z,47.71
2022-09-28T11:25:32.908Z,46.32
2022-09-28T11:28:04.493Z,44.06
2022-09-28T11:30:34.154Z,44.39
2022-09-28T11:33:05.795Z,42.23
2022-09-28T11:35:44.505Z,42.62
2022-09-28T11:38:36.079Z,39.71
2022-09-28T11:41:08.825Z,40.14
2022-09-28T11:43:47.530Z,41.22
2022-09-28T11:46:37.181Z,39.59
2022-09-28T11:49:16.108Z,37.72
2022-09-28T11:51:46.063Z,37.52
2022-09-28T11:54:28.960Z,36.91
2022-09-28T11:56:59.867Z,35.24
2022-09-28T11:59:32.758Z,34.62
2022-09-28T12:02:29.963Z,34.12
2022-09-28T12:05:14.903Z,32.88
2022-09-28T12:07:50.543Z,32.35
2022-09-28T12:10:20.160Z,31.64
2022-09-28T12:13:00.122Z,30.89
2022-09-28T12:16:12.956Z,32.39
2022-09-28T12:18:49.157Z,31.64
2022-09-28T12:21:24.712Z,32.25
2022-09-28T12:24:06.566Z,32.42
2022-09-28T12:26:38.814Z,32.69
2022-09-28T12:29:31.326Z,30.90
2022-09-28T12:32:26.220Z,31.96
2022-09-28T12:34:53.943Z,31.45
2022-09-28T12:37:43.597Z,31.36
2022-09-28T12:40:25.825Z,31.01
2022-09-28T12:43:01.327Z,32.08
2022-09-28T12:45:27.834Z,31.42
2022-09-28T12:48:26.170Z,31.48
2022-09-28T12:51:18.483Z,31.53
2022-09-28T12:54:12.791Z,31.03
2022-09-28T12:56:39.133Z,32.47
2022-09-28T12:59:35.266Z,34.13
2022-09-28T13:02:08.114Z,34.50
2022-09-28T13:04:49.939Z,35.34
2022-09-28T13:07:21.096Z,37.97
2022-09-28T13:10:07.499Z,36.23
2022-09-28T13:12:45.568Z,35.64
2022-09-28T13:15:45.487Z,36.24
2022-09-28T13:18:23.419Z,36.66
2022-09-28T13:21:13.004Z,36.41
2022-09-28T13:23:43.198Z,37.95
2022-09-28T13:26:19.659Z,37.61
2022-09-28T13:28:48.154Z,37.09
2022-09-28T13:31:20.472Z,35.78
2022-09-28T13:33:47.975Z,34.40
2022-09-28T13:36:26.609Z,35.29
2022-09-28T13:38:54.749Z,35.39
2022-09-28T13:41:47.413Z,34.94
2022-09-28T13:44:13.938Z,34.48
2022-09-28T13:47:21.345Z,31.67
2022-09-28T13:50:15.780Z,29.64
2022-09-28T13:52:52.432Z,30.99
2022-09-28T13:55:55.656Z,31.67
2022-09-28T13:58:30.094Z,32.66
2022-09-28T14:00:59.938Z,33.94
2022-09-28T14:03:28.345Z,33.43
2022-09-28T14:06:27.120Z,34.38
2022-09-28T14:09:15.982Z,34.06
2022-09-28T14:11:57.884Z,35.32
2022-09-28T14:14:31.137Z,33.20
2022-09-28T14:17:30.294Z,32.47
2022-09-28T14:20:03.719Z,32.31
2022-09-28T14:23:07.706Z,32.89
2022-09-28T14:25:41.057Z,33.81
2022-09-28T14:28:34.000Z,34.71
2022-09-28T14:31:08.589Z,35.74
2022-09-28T14:33:35.779Z,36.42
2022-09-28T14:36:07.607Z,36.32
2022-09-28T14:39:08.691Z,37.15
2022-09-28T14:41:38.459Z,35.41
2022-09-28T14:44:11.855Z,34.73
2022-09-28T14:46:46.646Z,35.38
2022-09-28T14:49:23.341Z,36.64
2022-09-28T14:51:55.937Z,36.49
2022-09-28T14:54:24.841Z,37.00
2022-09-28T14:56:54.424Z,37.37
2022-09-28T14:59:26.018Z,36.89
2022-09-28T15:01:57.958Z,39.11
2022-09-28T15:04:28.706Z,40.02
2022-09-28T15:06:55.551Z,40.43
2022-09-28T15:09:38.457Z,40.54
2022-09-28T15:12:12.190Z,41.33
2022-09-28T15:14:47.884Z,42.10
2022-09-28T15:17:21.501Z,43.04
2022-09-28T15:19:57.246Z,42.92
2022-09-28T15:22:24.300Z,42.95
2022-09-28T15:25:02.524Z,44.07
2022-09-28T15:27:38.889Z,44.12
2022-09-28T15:30:25.462Z,44.40
2022-09-28T15:32:56.584Z,45.69
2022-09-28T15:35:26.342Z,45.30
2022-09-28T15:37:54.926Z,45.60
2022-09-28T15:40:35.011Z,45.23
2022-09-28T15:43:03.775Z,44.48
2022-09-28T15:45:40.626Z,45.39
2022-09-28T15:48:18.440Z,46.00
2022-09-28T15:51:10.206Z,46.55
2022-09-28T15:53:43.013Z,48.12
2022-09-28T15:56:11.691Z,47.52
2022-09-28T15:58:39.487Z,46.88
2022-09-28T16:01:36.026Z,47.05
2022-09-28T16:04:31.919Z,48.02
2022-09-28T16:07:05.461Z,48.27
2022-09-28T16:09:34.575Z,48.86
2022-09-28T16:12:11.504Z,48.33
2022-09-28T16:14:38.047Z,49.26
2022-09-28T16:17:04.575Z,49.98
2022-09-28T16:19:37.474Z,50.38
2022-09-28T16:22:07.425Z,51.45
2022-09-28T16:24:37.339Z,50.73
2022-09-28T16:27:28.732Z,51.11
2022-09-28T16:30:21.671Z,52.16
2022-09-28T16:33:43.758Z,51.61
2022-09-28T16:36:17.241Z,51.99
2022-09-28T16:38:47.528Z,52.32
2022-09-28T16:41:27.058Z,51.98
2022-09-28T16:43:59.241Z,52.13
2022-09-28T16:46:32.554Z,52.68
2022-09-28T16:49:00.851Z,52.86
2022-09-28T16:51:27.850Z,53.49
2022-09-28T16:54:12.975Z,52.86
2022-09-28T16:56:39.466Z,54.29
2022-09-28T16:59:06.017Z,54.67
2022-09-28T17:01:32.978Z,56.26
2022-09-28T17:03:59.594Z,57.96
2022-09-28T17:06:27.275Z,55.10
2022-09-28T17:08:58.737Z,55.18
2022-09-28T17:11:25.450Z,55.57
2022-09-28T17:13:53.585Z,55.80
2022-09-28T17:16:32.510Z,57.52
2022-09-28T17:19:21.417Z,57.44
2022-09-28T17:21:48.158Z,61.63
2022-09-28T17:24:14.664Z,58.00
2022-09-28T17:26:43.806Z,56.89
2022-09-28T17:29:14.616Z,59.50
2022-09-28T17:31:45.614Z,57.45
2022-09-28T17:34:15.197Z,56.92
2022-09-28T17:36:42.652Z,60.62
2022-09-28T17:39:16.443Z,61.96
2022-09-28T17:41:43.348Z,60.05
2022-09-28T17:44:10.348Z,65.23
2022-09-28T17:46:40.632Z,65.42
2022-09-28T17:49:11.596Z,67.68
2022-09-28T17:51:38.399Z,68.70
2022-09-28T17:54:06.885Z,70.79
2022-09-28T17:56:34.374Z,68.43
2022-09-28T17:59:04.862Z,71.19
2022-09-28T18:01:34.361Z,72.19
2022-09-28T18:04:03.450Z,71.66
2022-09-28T18:06:30.196Z,68.54
2022-09-28T18:08:56.771Z,71.41
2022-09-28T18:11:23.587Z,68.88
2022-09-28T18:13:50.151Z,70.00
2022-09-28T18:16:17.569Z,71.83
2022-09-28T18:18:44.117Z,74.01
2022-09-28T18:21:10.736Z,74.73
2022-09-28T18:23:38.359Z,72.39
2022-09-28T18:26:11.020Z,77.63
2022-09-28T18:28:37.558Z,74.78
2022-09-28T18:31:08.949Z,78.00
2022-09-28T18:33:36.604Z,78.19
2022-09-28T18:36:05.354Z,80.49
2022-09-28T18:38:34.607Z,81.44
2022-09-28T18:41:14.443Z,82.65
2022-09-28T18:43:42.439Z,81.50
2022-09-28T18:46:10.571Z,82.10
2022-09-28T18:48:38.252Z,82.80
2022-09-28T18:51:08.753Z,83.00
2022-09-28T18:53:35.411Z,83.83
2022-09-28T18:56:07.941Z,81.66
2022-09-28T18:58:36.468Z,83.38
2022-09-28T19:04:03.922Z,85.47
2022-09-28T19:06:31.807Z,86.02
2022-09-28T19:08:58.680Z,85.99
2022-09-28T19:11:25.847Z,86.00
2022-09-28T19:13:54.517Z,86.16
2022-09-28T19:16:26.218Z,84.79
2022-09-28T19:18:53.649Z,85.83
2022-09-28T19:21:21.047Z,87.62
2022-09-28T19:23:49.859Z,89.59
2022-09-28T19:26:22.292Z,89.64
2022-09-28T19:28:49.220Z,90.52
2022-09-28T19:31:16.696Z,91.09
2022-09-28T19:33:46.408Z,91.89
2022-09-28T19:36:18.866Z,91.40
2022-09-28T19:38:46.254Z,91.84
2022-09-28T19:41:39.142Z,88.64
2022-09-28T19:44:19.792Z,90.51
2022-09-28T19:46:46.472Z,91.64
2022-09-28T19:49:19.388Z,90.57
2022-09-28T19:52:11.696Z,91.48
2022-09-28T19:54:38.172Z,91.30
2022-09-28T19:57:08.770Z,91.86
2022-09-28T19:59:37.675Z,91.80
2022-09-28T20:02:07.432Z,93.31
2022-09-28T20:04:33.993Z,93.19
2022-09-28T20:07:00.758Z,93.97
2022-09-28T20:09:27.286Z,94.15
2022-09-28T20:11:53.846Z,93.42
2022-09-28T20:14:22.445Z,94.38
2022-09-28T20:16:51.127Z,93.15
2022-09-28T20:19:19.476Z,94.21
2022-09-28T20:21:48.072Z,94.68
2022-09-28T20:24:16.207Z,95.88
2022-09-28T20:26:43.382Z,95.49
2022-09-28T20:29:10.637Z,96.19
2022-09-28T20:31:37.938Z,96.88
2022-09-28T20:34:05.607Z,96.90
2022-09-28T20:36:32.603Z,96.72
2022-09-28T20:39:02.952Z,97.22
2022-09-28T20:41:36.619Z,97.88
2022-09-28T20:44:06.369Z,97.52
2022-09-28T20:46:34.798Z,95.33
2022-09-28T20:49:01.656Z,97.26
2022-09-28T20:51:28.238Z,96.58
2022-09-28T20:53:56.373Z,96.44
2022-09-28T20:56:23.831Z,96.90
2022-09-28T20:58:51.128Z,97.41
2022-09-28T21:01:26.429Z,97.36
2022-09-28T21:03:55.143Z,95.18
2022-09-28T21:06:23.910Z,98.29
2022-09-28T21:08:50.644Z,98.26
2022-09-28T21:11:19.440Z,98.51
2022-09-28T21:13:46.234Z,97.86
2022-09-28T21:16:15.575Z,98.09
2022-09-28T21:18:42.469Z,97.53
2022-09-28T21:21:14.403Z,97.15
2022-09-28T21:23:41.005Z,96.86
2022-09-28T21:26:09.934Z,96.26
2022-09-28T21:28:37.475Z,97.76
2022-09-28T21:31:10.321Z,97.64
2022-09-28T21:33:37.239Z,97.42
2022-09-28T21:36:06.314Z,97.86
2022-09-28T21:38:33.264Z,97.58
2022-09-28T21:41:00.518Z,97.98
2022-09-28T21:43:28.500Z,98.70
2022-09-28T21:45:56.468Z,99.28
2022-09-28T21:48:24.604Z,99.47
2022-09-28T21:51:13.274Z,98.24
2022-09-28T21:53:39.786Z,98.38
2022-09-28T21:56:09.474Z,99.45
2022-09-28T21:58:37.025Z,98.75
2022-09-28T22:01:06.995Z,99.02
2022-09-28T22:03:35.559Z,98.98
2022-09-28T22:06:06.071Z,99.25
2022-09-28T22:08:33.651Z,100.00
2022-09-28T22:11:17.931Z,100.00
2022-09-28T22:13:50.382Z,100.00
2022-09-28T22:16:20.399Z,100.00
2022-09-28T22:18:47.831Z,99.95
2022-09-28T22:21:17.844Z,99.03
2022-09-28T22:23:45.017Z,99.78
2022-09-28T22:26:18.880Z,97.70
2022-09-28T22:28:47.852Z,97.83
2022-09-28T22:31:15.399Z,98.34
2022-09-28T22:33:41.982Z,98.07
2022-09-28T22:36:08.507Z,98.65
2022-09-28T22:38:35.371Z,98.86
2022-09-28T22:41:05.149Z,99.35
2022-09-28T22:43:33.182Z,100.00
2022-09-28T22:46:07.697Z,100.00
2022-09-28T22:48:34.848Z,100.00
2022-09-28T22:51:02.571Z,100.00
2022-09-28T22:53:29.894Z,100.00
2022-09-28T22:56:06.072Z,100.00
2022-09-28T22:58:34.184Z,100.00
2022-09-28T23:01:11.146Z,100.00
2022-09-28T23:03:42.216Z,100.00
2022-09-28T23:06:10.220Z,100.00
2022-09-28T23:08:36.877Z,100.00
2022-09-28T23:11:03.838Z,100.00
2022-09-28T23:13:31.130Z,100.00
2022-09-28T23:16:03.355Z,100.00
2022-09-28T23:18:32.630Z,100.00
2022-09-28T23:21:01.920Z,100.00
2022-09-28T23:23:29.085Z,100.00
2022-09-28T23:25:56.142Z,100.00
2022-09-28T23:28:24.782Z,100.00
2022-09-28T23:30:52.077Z,100.00
2022-09-28T23:33:20.358Z,100.00
2022-09-28T23:35:47.248Z,100.00
2022-09-28T23:38:17.987Z,100.00
2022-09-28T23:40:46.470Z,100.00
2022-09-28T23:43:13.559Z,100.00
2022-09-28T23:45:42.245Z,100.00
2022-09-28T23:48:09.226Z,100.00
2022-09-28T23:50:35.749Z,100.00
2022-09-28T23:53:02.234Z,100.00
2022-09-28T23:55:29.135Z,100.00
2022-09-28T23:57:56.689Z,100.00
